Terminal Aerodrome Forecast
Issued by NWS

Current Version | Previous Version | Graphics & Text | Print | Product List | Glossary On
Versions: 1 2 3 4 5 6 7 8 9 10 11 12 13 14 15 16 17 18 19 20
842
FTUS41 KILN 021949 AAA
TAFLCK
TAF AMD
KLCK 021949Z 0220/0318 28010KT P6SM OVC035
      TEMPO 0220/0224 OVC025
     FM030600 28007KT P6SM BKN035=

USA.gov is the U.S. government's official web portal to all federal, state and local government web resources and services.